Here is the Quick Look data you requested

The Data originates at the National Weather Service, and is made available here by the UAlbany Department of Atmospheric and Environmental Sciences

Surface Observations

KPSK 151955Z AUTO 25006KT 10SM SCT070 33/15 A3003 RMK AO2 T03320145=
KPSK 152015Z AUTO 22004KT 10SM CLR 33/14 A3002 RMK AO2 T03340138=
KPSK 152035Z AUTO 28004KT 10SM SCT080 34/14 A3002 RMK AO2 T03360139=
KPSK 152055Z AUTO 24003KT 10SM SCT090 BKN100 33/14 A3001 RMK AO2 T03330139=
KPSK 152115Z AUTO 31004KT 10SM BKN090 BKN120 33/13 A3001 RMK AO2 T03280134=
KPSK 152135Z AUTO 36003KT 10SM BKN090 BKN120 34/14 A3000 RMK AO2 T03350139=
KPSK 152155Z AUTO 29003KT 10SM SCT090 SCT110 32/15 A3000 RMK AO2 T03200147=
KPSK 152215Z AUTO 00000KT 10SM SCT090 32/15 A3000 RMK AO2 T03230147=
KPSK 152235Z AUTO 00000KT 10SM SCT085 31/17 A3000 RMK AO2 T03100167=
KPSK 152255Z AUTO 23004KT 10SM BKN085 BKN120 31/16 A3000 RMK AO2 T03050161=
KPSK 152315Z AUTO 24008KT 10SM SCT085 SCT120 29/16 A3000 RMK AO2 T02940160=
KPSK 152335Z AUTO 23011KT 10SM SCT085 30/16 A3001 RMK AO2 T02960161=
KPSK 152355Z AUTO 24008KT 10SM SCT085 SCT100 29/17 A3002 RMK AO2 T02850168
 10337 20285=
KPSK 160015Z AUTO 22009KT 10SM CLR 28/17 A3002 RMK AO2 T02750167=
KPSK 160035Z AUTO 25005KT 10SM CLR 27/17 A3003 RMK AO2 T02680165=
KPSK 160055Z AUTO 22006KT 10SM CLR 26/17 A3003 RMK AO2 T02590170=
KPSK 160115Z AUTO 23005KT 10SM SCT070 26/17 A3004 RMK AO2 T02550173=
KPSK 160135Z AUTO 30004KT 10SM CLR 25/18 A3005 RMK AO2 T02530176=
KPSK 160155Z AUTO 05006KT 10SM CLR 24/18 A3005 RMK AO2 LTG DSNT E T02440177=
KPSK 160215Z AUTO 10006KT 10SM CLR 25/17 A3005 RMK AO2 LTG DSNT E T02450169=
KPSK 160235Z AUTO 09004KT 10SM CLR 24/16 A3005 RMK AO2 T02410160=
KPSK 160255Z AUTO 00000KT 10SM CLR 23/16 A3004 RMK AO2 T02330160=
KPSK 160315Z AUTO 00000KT 10SM CLR 23/16 A3003 RMK AO2 T02260161=
KPSK 160335Z AUTO 27003KT 10SM CLR 21/16 A3003 RMK AO2 T02120163=
KPSK 160355Z AUTO 22004KT 10SM CLR 21/17 A3002 RMK AO2 T02120165=
KPSK 160415Z AUTO 00000KT 10SM CLR 21/17 A3002 RMK AO2 T02100166=
KPSK 160435Z AUTO 00000KT 10SM CLR 21/17 A3002 RMK AO2 T02110165=
KPSK 160455Z AUTO 00000KT 10SM CLR 21/17 A3002 RMK AO2 T02100166=
KPSK 160515Z AUTO 28003KT 10SM CLR 21/17 A3002 RMK AO2 T02060168=
KPSK 160535Z AUTO 00000KT 10SM CLR 21/17 A3002 RMK AO2 T02050169=
KPSK 160555Z AUTO 30004KT 10SM CLR 21/17 A3002 RMK AO2 T02070171 10284 20202=
KPSK 160615Z AUTO 29003KT 10SM CLR 20/17 A3002 RMK AO2 T01950168=
KPSK 160635Z AUTO 00000KT 10SM CLR 20/17 A3002 RMK AO2 T02010170=
KPSK 160655Z AUTO 00000KT 10SM CLR 19/17 A3003 RMK AO2 T01910170=
KPSK 160715Z AUTO 00000KT 10SM CLR 19/17 A3003 RMK AO2 T01930171=
KPSK 160735Z AUTO 00000KT 10SM CLR 20/17 A3003 RMK AO2 T01990172=
KPSK 160755Z AUTO 20004KT 10SM CLR 20/17 A3003 RMK AO2 T01970174=
KPSK 160815Z AUTO 21006KT 10SM CLR 21/18 A3002 RMK AO2 T02080180=
KPSK 160835Z AUTO 00000KT 10SM CLR 21/18 A3002 RMK AO2 T02050180=
KPSK 160855Z AUTO 00000KT 10SM CLR 19/17 A3002 RMK AO2 T01920173=
KPSK 160915Z AUTO 17003KT 10SM CLR 20/18 A3002 RMK AO2 T01960176=
KPSK 160935Z AUTO 00000KT 10SM CLR 20/18 A3002 RMK AO2 T02010178=
KPSK 160955Z AUTO 00000KT 10SM CLR 20/18 A3003 RMK AO2 T01960177=
KPSK 161015Z AUTO 29003KT 10SM CLR 19/17 A3003 RMK AO2 T01880173=
KPSK 161035Z AUTO 20003KT 10SM CLR 20/18 A3004 RMK AO2 T01960180=
KPSK 161055Z AUTO 22005KT 10SM CLR 21/19 A3003 RMK AO2 T02080185=
KPSK 161115Z AUTO 25006KT 10SM CLR 22/19 A3004 RMK AO2 T02150185=
KPSK 161135Z AUTO 00000KT 10SM CLR 21/19 A3004 RMK AO2 T02070185=
KPSK 161155Z AUTO 00000KT 10SM CLR 21/19 A3005 RMK AO2 T02070186 10215 20187=
KPSK 161215Z AUTO 23003KT 10SM CLR 22/19 A3005 RMK AO2 T02170189=
KPSK 161235Z AUTO 26004KT 10SM CLR 24/20 A3006 RMK AO2 T02370195=
KPSK 161255Z AUTO 24006KT 10SM CLR 25/20 A3006 RMK AO2 T02490196=
KPSK 161315Z AUTO 23007KT 10SM CLR 25/20 A3006 RMK AO2 T02490196=
KPSK 161335Z AUTO 22006KT 10SM CLR 26/20 A3006 RMK AO2 T02580200=
KPSK 161355Z AUTO 22006KT 10SM CLR 26/20 A3005 RMK AO2 T02640201=
KPSK 161415Z AUTO 23006KT 10SM CLR 27/20 A3005 RMK AO2 T02700203=
KPSK 161435Z AUTO 22005KT 10SM CLR 28/20 A3005 RMK AO2 T02770204=
KPSK 161455Z AUTO 26006KT 10SM CLR 28/20 A3005 RMK AO2 T02820203=
KPSK 161515Z AUTO 24006KT 10SM CLR 29/21 A3006 RMK AO2 T02890208=
KPSK 161535Z AUTO 24003KT 10SM SCT031 29/21 A3006 RMK AO2 T02890210=
KPSK 161555Z AUTO 26003KT 10SM SCT034 BKN045 30/21 A3005 RMK AO2 T02950209=
KPSK 161615Z AUTO 26005KT 10SM SCT037 BKN045 30/21 A3005 RMK AO2 T02970207=
KPSK 161635Z AUTO 30004KT 10SM BKN039 BKN047 BKN055 30/21 A3004 RMK AO2
 T03020207=
KPSK 161655Z AUTO 22003KT 10SM SCT042 BKN050 BKN070 31/20 A3003 RMK AO2
 T03110200=
KPSK 161715Z AUTO 00000KT 10SM BKN046 BKN050 BKN070 30/20 A3002 RMK AO2
 T03040198=
KPSK 161735Z AUTO 24004KT 10SM SCT046 SCT070 SCT085 31/20 A3001 RMK AO2
 T03090199=
KPSK 161755Z AUTO 25005KT 10SM SCT065 SCT075 SCT120 32/20 A3001 RMK AO2
 T03150196 10315 20208=
KPSK 161815Z AUTO 25006KT 10SM CLR 32/19 A3000 RMK AO2 T03190191=
KPSK 161835Z AUTO 18009G16KT 10SM CLR 33/19 A3000 RMK AO2 T03290188=
KPSK 161855Z AUTO 12003KT 10SM CLR 32/19 A2998 RMK AO2 LTG DSNT SW T03210185=
KPSK 161915Z AUTO 28006KT 10SM SCT080 SCT120 32/18 A2998 RMK AO2 T03240183=
KPSK 161935Z AUTO 24008KT 10SM SCT070 BKN100 32/18 A2998 RMK AO2 T03170183=
KPSK 161955Z AUTO 21004G27KT 4SM +RA SCT045 SCT060 OVC100 27/20 A2998 RMK AO2
 P0003 T02660204=

Decoded Surface Observations


The weather observed at DUBLIN/NEW RIV, VA (KPSK) at 03:55 PM EDT was:
  The skies were partly cloudy.
  Temperature: 91F ( 33C)  Dewpoint:  59F ( 15C)  Relative Humidity:  34%
  Winds from the WSW(250 degs) at  7 mph.
  Altimeter:30.03 inches of mercury.
  The prevailing visibility was 10 miles.

The weather observed at DUBLIN/NEW RIV, VA (KPSK) at 04:15 PM EDT was:
  The skies were clear.
  Temperature: 91F ( 33C)  Dewpoint:  57F ( 14C)  Relative Humidity:  32%
  Winds from the SW (220 degs) at  5 mph.
  Altimeter:30.02 inches of mercury.
  The prevailing visibility was 10 miles.

The weather observed at DUBLIN/NEW RIV, VA (KPSK) at 04:35 PM EDT was:
  The skies were partly cloudy.
  Temperature: 93F ( 34C)  Dewpoint:  57F ( 14C)  Relative Humidity:  30%
  Winds from the W  (280 degs) at  5 mph.
  Altimeter:30.02 inches of mercury.
  The prevailing visibility was 10 miles.

The weather observed at DUBLIN/NEW RIV, VA (KPSK) at 04:55 PM EDT was:
  The skies were mostly cloudy.
  Temperature: 91F ( 33C)  Dewpoint:  57F ( 14C)  Relative Humidity:  32%
  Winds from the SW (240 degs) at  3 mph.
  Altimeter:30.01 inches of mercury.
  The prevailing visibility was 10 miles.

The weather observed at DUBLIN/NEW RIV, VA (KPSK) at 05:15 PM EDT was:
  The skies were mostly cloudy.
  Temperature: 91F ( 33C)  Dewpoint:  55F ( 13C)  Relative Humidity:  30%
  Winds from the NW (310 degs) at  5 mph.
  Altimeter:30.01 inches of mercury.
  The prevailing visibility was 10 miles.

The weather observed at DUBLIN/NEW RIV, VA (KPSK) at 05:35 PM EDT was:
  The skies were mostly cloudy.
  Temperature: 93F ( 34C)  Dewpoint:  57F ( 14C)  Relative Humidity:  30%
  Winds from the N  (360 degs) at  3 mph.
  Altimeter:30.00 inches of mercury.
  The prevailing visibility was 10 miles.

The weather observed at DUBLIN/NEW RIV, VA (KPSK) at 05:55 PM EDT was:
  The skies were partly cloudy.
  Temperature: 90F ( 32C)  Dewpoint:  59F ( 15C)  Relative Humidity:  36%
  Winds from the WNW(290 degs) at  3 mph.
  Altimeter:30.00 inches of mercury.
  The prevailing visibility was 10 miles.

The weather observed at DUBLIN/NEW RIV, VA (KPSK) at 06:15 PM EDT was:
  The skies were partly cloudy.
  Temperature: 90F ( 32C)  Dewpoint:  59F ( 15C)  Relative Humidity:  36%
  Winds from the CLM(CLM degs) at  0 mph.
  Altimeter:30.00 inches of mercury.
  The prevailing visibility was 10 miles.

The weather observed at DUBLIN/NEW RIV, VA (KPSK) at 06:35 PM EDT was:
  The skies were partly cloudy.
  Temperature: 88F ( 31C)  Dewpoint:  63F ( 17C)  Relative Humidity:  43%
  Winds from the CLM(CLM degs) at  0 mph.
  Altimeter:30.00 inches of mercury.
  The prevailing visibility was 10 miles.

The weather observed at DUBLIN/NEW RIV, VA (KPSK) at 06:55 PM EDT was:
  The skies were mostly cloudy.
  Temperature: 88F ( 31C)  Dewpoint:  61F ( 16C)  Relative Humidity:  40%
  Winds from the SW (230 degs) at  5 mph.
  Altimeter:30.00 inches of mercury.
  The prevailing visibility was 10 miles.

The weather observed at DUBLIN/NEW RIV, VA (KPSK) at 07:15 PM EDT was:
  The skies were partly cloudy.
  Temperature: 84F ( 29C)  Dewpoint:  61F ( 16C)  Relative Humidity:  45%
  Winds from the SW (240 degs) at  9 mph.
  Altimeter:30.00 inches of mercury.
  The prevailing visibility was 10 miles.

The weather observed at DUBLIN/NEW RIV, VA (KPSK) at 07:35 PM EDT was:
  The skies were partly cloudy.
  Temperature: 86F ( 30C)  Dewpoint:  61F ( 16C)  Relative Humidity:  43%
  Winds from the SW (230 degs) at 13 mph.
  Altimeter:30.01 inches of mercury.
  The prevailing visibility was 10 miles.

The weather observed at DUBLIN/NEW RIV, VA (KPSK) at 07:55 PM EDT was:
  The skies were partly cloudy.
  Temperature: 83F ( 29C)  Dewpoint:  62F ( 17C)  Relative Humidity:  49%
  Winds from the SW (240 degs) at  9 mph.
  Altimeter:30.02 inches of mercury.
  The prevailing visibility was 10 miles.
  The maximum temperature in the past 6 hours was  93F.

The weather observed at DUBLIN/NEW RIV, VA (KPSK) at 08:15 PM EDT was:
  The skies were clear.
  Temperature: 82F ( 28C)  Dewpoint:  63F ( 17C)  Relative Humidity:  51%
  Winds from the SW (220 degs) at 10 mph.
  Altimeter:30.02 inches of mercury.
  The prevailing visibility was 10 miles.

The weather observed at DUBLIN/NEW RIV, VA (KPSK) at 08:35 PM EDT was:
  The skies were clear.
  Temperature: 81F ( 27C)  Dewpoint:  63F ( 17C)  Relative Humidity:  54%
  Winds from the WSW(250 degs) at  6 mph.
  Altimeter:30.03 inches of mercury.
  The prevailing visibility was 10 miles.

The weather observed at DUBLIN/NEW RIV, VA (KPSK) at 08:55 PM EDT was:
  The skies were clear.
  Temperature: 79F ( 26C)  Dewpoint:  63F ( 17C)  Relative Humidity:  58%
  Winds from the SW (220 degs) at  7 mph.
  Altimeter:30.03 inches of mercury.
  The prevailing visibility was 10 miles.

The weather observed at DUBLIN/NEW RIV, VA (KPSK) at 09:15 PM EDT was:
  The skies were partly cloudy.
  Temperature: 79F ( 26C)  Dewpoint:  63F ( 17C)  Relative Humidity:  58%
  Winds from the SW (230 degs) at  6 mph.
  Altimeter:30.04 inches of mercury.
  The prevailing visibility was 10 miles.

The weather observed at DUBLIN/NEW RIV, VA (KPSK) at 09:35 PM EDT was:
  The skies were clear.
  Temperature: 77F ( 25C)  Dewpoint:  64F ( 18C)  Relative Humidity:  65%
  Winds from the NW (300 degs) at  5 mph.
  Altimeter:30.05 inches of mercury.
  The prevailing visibility was 10 miles.

The weather observed at DUBLIN/NEW RIV, VA (KPSK) at 09:55 PM EDT was:
  The skies were clear.
  Temperature: 75F ( 24C)  Dewpoint:  64F ( 18C)  Relative Humidity:  69%
  Winds from the NE (050 degs) at  7 mph.
  Altimeter:30.05 inches of mercury.
  The prevailing visibility was 10 miles.

The weather observed at DUBLIN/NEW RIV, VA (KPSK) at 10:15 PM EDT was:
  The skies were clear.
  Temperature: 77F ( 25C)  Dewpoint:  63F ( 17C)  Relative Humidity:  61%
  Winds from the E  (100 degs) at  7 mph.
  Altimeter:30.05 inches of mercury.
  The prevailing visibility was 10 miles.

The weather observed at DUBLIN/NEW RIV, VA (KPSK) at 10:35 PM EDT was:
  The skies were clear.
  Temperature: 75F ( 24C)  Dewpoint:  61F ( 16C)  Relative Humidity:  61%
  Winds from the E  (090 degs) at  5 mph.
  Altimeter:30.05 inches of mercury.
  The prevailing visibility was 10 miles.

The weather observed at DUBLIN/NEW RIV, VA (KPSK) at 10:55 PM EDT was:
  The skies were clear.
  Temperature: 73F ( 23C)  Dewpoint:  61F ( 16C)  Relative Humidity:  65%
  Winds from the CLM(CLM degs) at  0 mph.
  Altimeter:30.04 inches of mercury.
  The prevailing visibility was 10 miles.

The weather observed at DUBLIN/NEW RIV, VA (KPSK) at 11:15 PM EDT was:
  The skies were clear.
  Temperature: 73F ( 23C)  Dewpoint:  61F ( 16C)  Relative Humidity:  65%
  Winds from the CLM(CLM degs) at  0 mph.
  Altimeter:30.03 inches of mercury.
  The prevailing visibility was 10 miles.

The weather observed at DUBLIN/NEW RIV, VA (KPSK) at 11:35 PM EDT was:
  The skies were clear.
  Temperature: 70F ( 21C)  Dewpoint:  61F ( 16C)  Relative Humidity:  73%
  Winds from the W  (270 degs) at  3 mph.
  Altimeter:30.03 inches of mercury.
  The prevailing visibility was 10 miles.

The weather observed at DUBLIN/NEW RIV, VA (KPSK) at 11:55 PM EDT was:
  The skies were clear.
  Temperature: 70F ( 21C)  Dewpoint:  63F ( 17C)  Relative Humidity:  78%
  Winds from the SW (220 degs) at  5 mph.
  Altimeter:30.02 inches of mercury.
  The prevailing visibility was 10 miles.

The weather observed at DUBLIN/NEW RIV, VA (KPSK) at 12:15 AM EDT was:
  The skies were clear.
  Temperature: 70F ( 21C)  Dewpoint:  63F ( 17C)  Relative Humidity:  78%
  Winds from the CLM(CLM degs) at  0 mph.
  Altimeter:30.02 inches of mercury.
  The prevailing visibility was 10 miles.

The weather observed at DUBLIN/NEW RIV, VA (KPSK) at 12:35 AM EDT was:
  The skies were clear.
  Temperature: 70F ( 21C)  Dewpoint:  63F ( 17C)  Relative Humidity:  78%
  Winds from the CLM(CLM degs) at  0 mph.
  Altimeter:30.02 inches of mercury.
  The prevailing visibility was 10 miles.

The weather observed at DUBLIN/NEW RIV, VA (KPSK) at 12:55 AM EDT was:
  The skies were clear.
  Temperature: 70F ( 21C)  Dewpoint:  63F ( 17C)  Relative Humidity:  78%
  Winds from the CLM(CLM degs) at  0 mph.
  Altimeter:30.02 inches of mercury.
  The prevailing visibility was 10 miles.

The weather observed at DUBLIN/NEW RIV, VA (KPSK) at 01:15 AM EDT was:
  The skies were clear.
  Temperature: 70F ( 21C)  Dewpoint:  63F ( 17C)  Relative Humidity:  78%
  Winds from the W  (280 degs) at  3 mph.
  Altimeter:30.02 inches of mercury.
  The prevailing visibility was 10 miles.

The weather observed at DUBLIN/NEW RIV, VA (KPSK) at 01:35 AM EDT was:
  The skies were clear.
  Temperature: 70F ( 21C)  Dewpoint:  63F ( 17C)  Relative Humidity:  78%
  Winds from the CLM(CLM degs) at  0 mph.
  Altimeter:30.02 inches of mercury.
  The prevailing visibility was 10 miles.

The weather observed at DUBLIN/NEW RIV, VA (KPSK) at 01:55 AM EDT was:
  The skies were clear.
  Temperature: 69F ( 21C)  Dewpoint:  63F ( 17C)  Relative Humidity:  80%
  Winds from the NW (300 degs) at  5 mph.
  Altimeter:30.02 inches of mercury.
  The prevailing visibility was 10 miles.
  The maximum temperature in the past 6 hours was  83F.

The weather observed at DUBLIN/NEW RIV, VA (KPSK) at 02:15 AM EDT was:
  The skies were clear.
  Temperature: 68F ( 20C)  Dewpoint:  63F ( 17C)  Relative Humidity:  83%
  Winds from the WNW(290 degs) at  3 mph.
  Altimeter:30.02 inches of mercury.
  The prevailing visibility was 10 miles.

The weather observed at DUBLIN/NEW RIV, VA (KPSK) at 02:35 AM EDT was:
  The skies were clear.
  Temperature: 68F ( 20C)  Dewpoint:  63F ( 17C)  Relative Humidity:  83%
  Winds from the CLM(CLM degs) at  0 mph.
  Altimeter:30.02 inches of mercury.
  The prevailing visibility was 10 miles.

The weather observed at DUBLIN/NEW RIV, VA (KPSK) at 02:55 AM EDT was:
  The skies were clear.
  Temperature: 66F ( 19C)  Dewpoint:  63F ( 17C)  Relative Humidity:  88%
  Winds from the CLM(CLM degs) at  0 mph.
  Altimeter:30.03 inches of mercury.
  The prevailing visibility was 10 miles.

The weather observed at DUBLIN/NEW RIV, VA (KPSK) at 03:15 AM EDT was:
  The skies were clear.
  Temperature: 66F ( 19C)  Dewpoint:  63F ( 17C)  Relative Humidity:  88%
  Winds from the CLM(CLM degs) at  0 mph.
  Altimeter:30.03 inches of mercury.
  The prevailing visibility was 10 miles.

The weather observed at DUBLIN/NEW RIV, VA (KPSK) at 03:35 AM EDT was:
  The skies were clear.
  Temperature: 68F ( 20C)  Dewpoint:  63F ( 17C)  Relative Humidity:  83%
  Winds from the CLM(CLM degs) at  0 mph.
  Altimeter:30.03 inches of mercury.
  The prevailing visibility was 10 miles.

The weather observed at DUBLIN/NEW RIV, VA (KPSK) at 03:55 AM EDT was:
  The skies were clear.
  Temperature: 68F ( 20C)  Dewpoint:  63F ( 17C)  Relative Humidity:  83%
  Winds from the SSW(200 degs) at  5 mph.
  Altimeter:30.03 inches of mercury.
  The prevailing visibility was 10 miles.

The weather observed at DUBLIN/NEW RIV, VA (KPSK) at 04:15 AM EDT was:
  The skies were clear.
  Temperature: 70F ( 21C)  Dewpoint:  64F ( 18C)  Relative Humidity:  83%
  Winds from the SW (210 degs) at  7 mph.
  Altimeter:30.02 inches of mercury.
  The prevailing visibility was 10 miles.

The weather observed at DUBLIN/NEW RIV, VA (KPSK) at 04:35 AM EDT was:
  The skies were clear.
  Temperature: 70F ( 21C)  Dewpoint:  64F ( 18C)  Relative Humidity:  83%
  Winds from the CLM(CLM degs) at  0 mph.
  Altimeter:30.02 inches of mercury.
  The prevailing visibility was 10 miles.

The weather observed at DUBLIN/NEW RIV, VA (KPSK) at 04:55 AM EDT was:
  The skies were clear.
  Temperature: 66F ( 19C)  Dewpoint:  63F ( 17C)  Relative Humidity:  88%
  Winds from the CLM(CLM degs) at  0 mph.
  Altimeter:30.02 inches of mercury.
  The prevailing visibility was 10 miles.

The weather observed at DUBLIN/NEW RIV, VA (KPSK) at 05:15 AM EDT was:
  The skies were clear.
  Temperature: 68F ( 20C)  Dewpoint:  64F ( 18C)  Relative Humidity:  88%
  Winds from the S  (170 degs) at  3 mph.
  Altimeter:30.02 inches of mercury.
  The prevailing visibility was 10 miles.

The weather observed at DUBLIN/NEW RIV, VA (KPSK) at 05:35 AM EDT was:
  The skies were clear.
  Temperature: 68F ( 20C)  Dewpoint:  64F ( 18C)  Relative Humidity:  88%
  Winds from the CLM(CLM degs) at  0 mph.
  Altimeter:30.02 inches of mercury.
  The prevailing visibility was 10 miles.

The weather observed at DUBLIN/NEW RIV, VA (KPSK) at 05:55 AM EDT was:
  The skies were clear.
  Temperature: 68F ( 20C)  Dewpoint:  64F ( 18C)  Relative Humidity:  88%
  Winds from the CLM(CLM degs) at  0 mph.
  Altimeter:30.03 inches of mercury.
  The prevailing visibility was 10 miles.

The weather observed at DUBLIN/NEW RIV, VA (KPSK) at 06:15 AM EDT was:
  The skies were clear.
  Temperature: 66F ( 19C)  Dewpoint:  63F ( 17C)  Relative Humidity:  88%
  Winds from the WNW(290 degs) at  3 mph.
  Altimeter:30.03 inches of mercury.
  The prevailing visibility was 10 miles.

The weather observed at DUBLIN/NEW RIV, VA (KPSK) at 06:35 AM EDT was:
  The skies were clear.
  Temperature: 68F ( 20C)  Dewpoint:  64F ( 18C)  Relative Humidity:  88%
  Winds from the SSW(200 degs) at  3 mph.
  Altimeter:30.04 inches of mercury.
  The prevailing visibility was 10 miles.

The weather observed at DUBLIN/NEW RIV, VA (KPSK) at 06:55 AM EDT was:
  The skies were clear.
  Temperature: 70F ( 21C)  Dewpoint:  66F ( 19C)  Relative Humidity:  88%
  Winds from the SW (220 degs) at  6 mph.
  Altimeter:30.03 inches of mercury.
  The prevailing visibility was 10 miles.

The weather observed at DUBLIN/NEW RIV, VA (KPSK) at 07:15 AM EDT was:
  The skies were clear.
  Temperature: 72F ( 22C)  Dewpoint:  66F ( 19C)  Relative Humidity:  83%
  Winds from the WSW(250 degs) at  7 mph.
  Altimeter:30.04 inches of mercury.
  The prevailing visibility was 10 miles.

The weather observed at DUBLIN/NEW RIV, VA (KPSK) at 07:35 AM EDT was:
  The skies were clear.
  Temperature: 70F ( 21C)  Dewpoint:  66F ( 19C)  Relative Humidity:  88%
  Winds from the CLM(CLM degs) at  0 mph.
  Altimeter:30.04 inches of mercury.
  The prevailing visibility was 10 miles.

The weather observed at DUBLIN/NEW RIV, VA (KPSK) at 07:55 AM EDT was:
  The skies were clear.
  Temperature: 69F ( 21C)  Dewpoint:  65F ( 19C)  Relative Humidity:  88%
  Winds from the CLM(CLM degs) at  0 mph.
  Altimeter:30.05 inches of mercury.
  The prevailing visibility was 10 miles.
  The maximum temperature in the past 6 hours was  71F.

The weather observed at DUBLIN/NEW RIV, VA (KPSK) at 08:15 AM EDT was:
  The skies were clear.
  Temperature: 72F ( 22C)  Dewpoint:  66F ( 19C)  Relative Humidity:  83%
  Winds from the SW (230 degs) at  3 mph.
  Altimeter:30.05 inches of mercury.
  The prevailing visibility was 10 miles.

The weather observed at DUBLIN/NEW RIV, VA (KPSK) at 08:35 AM EDT was:
  The skies were clear.
  Temperature: 75F ( 24C)  Dewpoint:  68F ( 20C)  Relative Humidity:  78%
  Winds from the W  (260 degs) at  5 mph.
  Altimeter:30.06 inches of mercury.
  The prevailing visibility was 10 miles.

The weather observed at DUBLIN/NEW RIV, VA (KPSK) at 08:55 AM EDT was:
  The skies were clear.
  Temperature: 77F ( 25C)  Dewpoint:  68F ( 20C)  Relative Humidity:  74%
  Winds from the SW (240 degs) at  7 mph.
  Altimeter:30.06 inches of mercury.
  The prevailing visibility was 10 miles.

The weather observed at DUBLIN/NEW RIV, VA (KPSK) at 09:15 AM EDT was:
  The skies were clear.
  Temperature: 77F ( 25C)  Dewpoint:  68F ( 20C)  Relative Humidity:  74%
  Winds from the SW (230 degs) at  8 mph.
  Altimeter:30.06 inches of mercury.
  The prevailing visibility was 10 miles.

The weather observed at DUBLIN/NEW RIV, VA (KPSK) at 09:35 AM EDT was:
  The skies were clear.
  Temperature: 79F ( 26C)  Dewpoint:  68F ( 20C)  Relative Humidity:  70%
  Winds from the SW (220 degs) at  7 mph.
  Altimeter:30.06 inches of mercury.
  The prevailing visibility was 10 miles.

The weather observed at DUBLIN/NEW RIV, VA (KPSK) at 09:55 AM EDT was:
  The skies were clear.
  Temperature: 79F ( 26C)  Dewpoint:  68F ( 20C)  Relative Humidity:  70%
  Winds from the SW (220 degs) at  7 mph.
  Altimeter:30.05 inches of mercury.
  The prevailing visibility was 10 miles.

The weather observed at DUBLIN/NEW RIV, VA (KPSK) at 10:15 AM EDT was:
  The skies were clear.
  Temperature: 81F ( 27C)  Dewpoint:  68F ( 20C)  Relative Humidity:  66%
  Winds from the SW (230 degs) at  7 mph.
  Altimeter:30.05 inches of mercury.
  The prevailing visibility was 10 miles.

The weather observed at DUBLIN/NEW RIV, VA (KPSK) at 10:35 AM EDT was:
  The skies were clear.
  Temperature: 82F ( 28C)  Dewpoint:  68F ( 20C)  Relative Humidity:  62%
  Winds from the SW (220 degs) at  6 mph.
  Altimeter:30.05 inches of mercury.
  The prevailing visibility was 10 miles.

The weather observed at DUBLIN/NEW RIV, VA (KPSK) at 10:55 AM EDT was:
  The skies were clear.
  Temperature: 82F ( 28C)  Dewpoint:  68F ( 20C)  Relative Humidity:  62%
  Winds from the W  (260 degs) at  7 mph.
  Altimeter:30.05 inches of mercury.
  The prevailing visibility was 10 miles.

The weather observed at DUBLIN/NEW RIV, VA (KPSK) at 11:15 AM EDT was:
  The skies were clear.
  Temperature: 84F ( 29C)  Dewpoint:  70F ( 21C)  Relative Humidity:  62%
  Winds from the SW (240 degs) at  7 mph.
  Altimeter:30.06 inches of mercury.
  The prevailing visibility was 10 miles.

The weather observed at DUBLIN/NEW RIV, VA (KPSK) at 11:35 AM EDT was:
  The skies were partly cloudy.
  Temperature: 84F ( 29C)  Dewpoint:  70F ( 21C)  Relative Humidity:  62%
  Winds from the SW (240 degs) at  3 mph.
  Altimeter:30.06 inches of mercury.
  The prevailing visibility was 10 miles.

The weather observed at DUBLIN/NEW RIV, VA (KPSK) at 11:55 AM EDT was:
  The skies were mostly cloudy.
  Temperature: 86F ( 30C)  Dewpoint:  70F ( 21C)  Relative Humidity:  59%
  Winds from the W  (260 degs) at  3 mph.
  Altimeter:30.05 inches of mercury.
  The prevailing visibility was 10 miles.

The weather observed at DUBLIN/NEW RIV, VA (KPSK) at 12:15 PM EDT was:
  The skies were mostly cloudy.
  Temperature: 86F ( 30C)  Dewpoint:  70F ( 21C)  Relative Humidity:  59%
  Winds from the W  (260 degs) at  6 mph.
  Altimeter:30.05 inches of mercury.
  The prevailing visibility was 10 miles.

The weather observed at DUBLIN/NEW RIV, VA (KPSK) at 12:35 PM EDT was:
  The skies were mostly cloudy.
  Temperature: 86F ( 30C)  Dewpoint:  70F ( 21C)  Relative Humidity:  59%
  Winds from the NW (300 degs) at  5 mph.
  Altimeter:30.04 inches of mercury.
  The prevailing visibility was 10 miles.

The weather observed at DUBLIN/NEW RIV, VA (KPSK) at 12:55 PM EDT was:
  The skies were mostly cloudy.
  Temperature: 88F ( 31C)  Dewpoint:  68F ( 20C)  Relative Humidity:  52%
  Winds from the SW (220 degs) at  3 mph.
  Altimeter:30.03 inches of mercury.
  The prevailing visibility was 10 miles.

The weather observed at DUBLIN/NEW RIV, VA (KPSK) at 01:15 PM EDT was:
  The skies were mostly cloudy.
  Temperature: 86F ( 30C)  Dewpoint:  68F ( 20C)  Relative Humidity:  55%
  Winds from the CLM(CLM degs) at  0 mph.
  Altimeter:30.02 inches of mercury.
  The prevailing visibility was 10 miles.

The weather observed at DUBLIN/NEW RIV, VA (KPSK) at 01:35 PM EDT was:
  The skies were partly cloudy.
  Temperature: 88F ( 31C)  Dewpoint:  68F ( 20C)  Relative Humidity:  52%
  Winds from the SW (240 degs) at  5 mph.
  Altimeter:30.01 inches of mercury.
  The prevailing visibility was 10 miles.

The weather observed at DUBLIN/NEW RIV, VA (KPSK) at 01:55 PM EDT was:
  The skies were partly cloudy.
  Temperature: 89F ( 32C)  Dewpoint:  67F ( 20C)  Relative Humidity:  49%
  Winds from the WSW(250 degs) at  6 mph.
  Altimeter:30.01 inches of mercury.
  The prevailing visibility was 10 miles.
  The maximum temperature in the past 6 hours was  89F.

The weather observed at DUBLIN/NEW RIV, VA (KPSK) at 02:15 PM EDT was:
  The skies were clear.
  Temperature: 90F ( 32C)  Dewpoint:  66F ( 19C)  Relative Humidity:  46%
  Winds from the WSW(250 degs) at  7 mph.
  Altimeter:30.00 inches of mercury.
  The prevailing visibility was 10 miles.

The weather observed at DUBLIN/NEW RIV, VA (KPSK) at 02:35 PM EDT was:
  The skies were clear.
  Temperature: 91F ( 33C)  Dewpoint:  66F ( 19C)  Relative Humidity:  44%
  Winds from the S  (180 degs) at 10 mph.
  Altimeter:30.00 inches of mercury.
  The prevailing visibility was 10 miles.

The weather observed at DUBLIN/NEW RIV, VA (KPSK) at 02:55 PM EDT was:
  The skies were clear.
  Temperature: 90F ( 32C)  Dewpoint:  66F ( 19C)  Relative Humidity:  46%
  Winds from the SE (120 degs) at  3 mph.
  Altimeter:29.98 inches of mercury.
  The prevailing visibility was 10 miles.

The weather observed at DUBLIN/NEW RIV, VA (KPSK) at 03:15 PM EDT was:
  The skies were partly cloudy.
  Temperature: 90F ( 32C)  Dewpoint:  64F ( 18C)  Relative Humidity:  43%
  Winds from the W  (280 degs) at  7 mph.
  Altimeter:29.98 inches of mercury.
  The prevailing visibility was 10 miles.

The weather observed at DUBLIN/NEW RIV, VA (KPSK) at 03:35 PM EDT was:
  The skies were mostly cloudy.
  Temperature: 90F ( 32C)  Dewpoint:  64F ( 18C)  Relative Humidity:  43%
  Winds from the SW (240 degs) at  9 mph.
  Altimeter:29.98 inches of mercury.
  The prevailing visibility was 10 miles.

The weather observed at DUBLIN/NEW RIV, VA (KPSK) at 03:55 PM EDT was:
  The skies were cloudy.
  The weather reported was heavy rain.
  Temperature: 81F ( 27C)  Dewpoint:  68F ( 20C)  Relative Humidity:  66%
  Winds from the SW (210 degs) at  5 mph.
  Altimeter:29.98 inches of mercury.
  The prevailing visibility was 4 miles.
  There has been 0.03 inches of precipitation in the past hour.

Short Range Forecast

Sorry no data found for psk
Make sure psk is a valid station
You might need to specify a nearby major city
Try Again

Zone Forecast

VAZ013-170300-
Pulaski-
Including the cities of Radford and Pulaski
302 PM EDT Tue Jul 16 2024

.THIS AFTERNOON...Mostly sunny with a slight chance of showers
and thunderstorms. Hot. Near steady temperature in the lower 90s.
Southwest winds around 10 mph. Chance of rain 20 percent.
.TONIGHT...Partly cloudy. A slight chance of showers and
thunderstorms in the evening. Humid with lows in the upper 60s.
West winds 5 to 10 mph. Chance of rain 20 percent.
.WEDNESDAY...Sunny in the morning, then partly sunny with showers
with thunderstorms likely in the afternoon. Humid with highs in
the upper 80s. West winds 5 to 10 mph. Chance of rain 80 percent.
.WEDNESDAY NIGHT...Mostly cloudy. Showers and thunderstorms
likely, mainly in the evening. Humid with lows in the upper 60s.
West winds 5 to 10 mph. Chance of rain 70 percent.
.THURSDAY...Showers likely with a chance of thunderstorms. Humid
with highs around 80. Northwest winds around 5 mph. Chance of
rain 70 percent.
.THURSDAY NIGHT...Mostly cloudy with showers likely in the
evening, then partly cloudy after midnight. Lows in the lower
60s. Chance of rain 70 percent.
.FRIDAY AND FRIDAY NIGHT...Mostly cloudy. A chance of showers and
thunderstorms. Highs in the upper 70s. Lows in the lower 60s.
Chance of rain 40 percent.
.SATURDAY AND SATURDAY NIGHT...Mostly cloudy with showers likely
with a chance of thunderstorms. Highs around 80. Lows in the
lower 60s. Chance of rain 70 percent.
.SUNDAY AND SUNDAY NIGHT...Mostly cloudy. Showers likely with a
chance of thunderstorms. Highs in the lower 80s. Lows in the
lower 60s. Chance of rain 60 percent.
.MONDAY...Partly sunny with a chance of showers in the morning,
then mostly cloudy with showers likely with a chance of
thunderstorms in the afternoon. Highs in the lower 80s. Chance of
rain 70 percent.


State Forecast

Sorry no data found for psk
Make sure psk is a valid station
You might need to specify a nearby major city
Try Again

State Forecast Discussion

Sorry no data found for psk
Make sure psk is a valid station
You might need to specify a nearby major city
Try Again

GFS Short-Range Model Output Statistics (MOS) Forecast

KPSK   GFS MOS GUIDANCE    7/16/2024  1200 UTC
DT /JULY 16/JULY 17                /JULY 18                /JULY 19
HR   18 21 00 03 06 09 12 15 18 21 00 03 06 09 12 15 18 21 00 06 12
N/X                    68          88          67          83    60
TMP  91 92 86 76 72 69 73 84 86 82 78 72 70 69 71 77 80 80 74 65 64
DPT  66 65 68 69 68 67 69 71 70 70 71 70 70 68 69 68 65 63 63 61 60
CLD  SC SC BK OV BK BK BK BK OV OV OV OV OV OV OV OV OV BK BK BK FW
WDR  25 23 22 25 21 24 24 25 25 25 28 25 27 28 31 33 31 31 31 33 36
WSP  08 11 05 03 01 02 02 06 10 12 05 03 01 02 03 05 06 05 05 01 02
P06        10    22     9    14    52    53    38    37    30  7  6
P12                    30          74          64          55    13
Q06         0     0     0     0     1     1     1     1     0  0  0
Q12                     0           2           1           1     0
T06     26/17 21/ 3  2/ 0 17/ 7 55/25 26/ 4  8/ 0 17/ 4 26/11  1/ 0
T12           48/18       17/ 7       70/25       23/ 6    26/14
CIG   8  8  8  8  8  8  8  8  7  7  7  5  2  3  4  6  6  7  8  8  8
VIS   7  7  7  7  7  7  7  7  7  7  7  5  1  3  5  7  7  7  7  7  7
OBV   N  N  N  N  N  N  N  N  N  N  N BR FG BR BR  N  N  N  N  N  N

GFS Long-Range Model Output Statistics (MOS) Forecast

KPSK   GFSX MOS GUIDANCE   7/16/2024  1200 UTC
FHR  24  36| 48  60| 72  84| 96 108|120 132|144 156|168 180|192
     WED 17| THU 18| FRI 19| SAT 20| SUN 21| MON 22| TUE 23|WED CLIMO
N/X  68  88| 67  83| 60  85| 65  82| 65  86| 65  85| 65  84| 65 60 83
TMP  73  78| 71  74| 64  77| 68  76| 69  77| 69  77| 69  76| 68
DPT  69  71| 69  63| 60  64| 66  69| 68  67| 67  66| 68  68| 67
CLD  PC  OV| OV  OV| PC  PC| OV  OV| OV  OV| OV  OV| OV  OV| OV
WND   5  12|  5   6|  5   4|  3   4|  3   5|  3   6|  3   7|  4
P12  30  74| 64  55| 13  14| 33  60| 48  38| 38  52| 41  46| 37999999
P24      74|     75|     22|     66|     58|     64|     68|      999
Q12   0   2|  1   1|  0   0|  0   3|  1   0|  1   3|       |
Q24       2|      2|      0|      2|      1|      3|       |
T12  21  55| 30  27|  5  25| 10  47| 23  40| 18  40| 15  37| 13
T24        | 60    | 27    | 25    | 54    | 43    | 40    | 37

NGM Model Output Statistics (MOS) Forecast

Climatological Summary

Sorry no data found for psk
Make sure psk is a valid station
You might need to specify a nearby major city
Try Again

Watch and Warning Statment

Sorry no data found for psk
Make sure psk is a valid station
You might need to specify a nearby major city
or it could be THERE ARE NO WATCHES OR WARNINGS for psk
Try Again

Park/Ski Recreation Report/Forecast

Sorry no data found for psk
Make sure psk is a valid station
You might need to specify a nearby major city
Try Again